sensor_id;sensor_type;location;lat;lon;timestamp;pressure;altitude;pressure_sealevel;temperature;humidity
6829;BME280;17930;48.592;8.868;2023-03-08T00:00:14;95496.72;;;2.70;100.00
6829;BME280;17930;48.592;8.868;2023-03-08T00:02:41;95501.53;;;2.56;100.00
6829;BME280;17930;48.592;8.868;2023-03-08T00:05:10;95498.72;;;2.58;100.00
6829;BME280;17930;48.592;8.868;2023-03-08T00:07:37;95502.84;;;2.59;100.00
6829;BME280;17930;48.592;8.868;2023-03-08T00:10:04;95500.16;;;2.29;100.00
6829;BME280;17930;48.592;8.868;2023-03-08T00:12:31;95484.72;;;2.34;100.00
6829;BME280;17930;48.592;8.868;2023-03-08T00:14:58;95494.97;;;2.19;100.00
6829;BME280;17930;48.592;8.868;2023-03-08T00:17:24;95492.56;;;2.03;100.00
6829;BME280;17930;48.592;8.868;2023-03-08T00:19:51;95502.91;;;1.72;100.00
6829;BME280;17930;48.592;8.868;2023-03-08T00:22:19;95505.88;;;1.54;100.00
6829;BME280;17930;48.592;8.868;2023-03-08T00:24:45;95500.44;;;1.51;100.00
6829;BME280;17930;48.592;8.868;2023-03-08T00:27:12;95511.03;;;1.54;100.00
6829;BME280;17930;48.592;8.868;2023-03-08T00:29:39;95517.75;;;1.65;100.00
6829;BME280;17930;48.592;8.868;2023-03-08T00:32:06;95519.25;;;1.56;100.00
6829;BME280;17930;48.592;8.868;2023-03-08T00:34:32;95520.47;;;1.49;100.00
6829;BME280;17930;48.592;8.868;2023-03-08T00:36:59;95519.59;;;1.38;100.00
6829;BME280;17930;48.592;8.868;2023-03-08T00:39:27;95516.88;;;1.18;100.00
6829;BME280;17930;48.592;8.868;2023-03-08T00:41:53;95505.41;;;1.00;100.00
6829;BME280;17930;48.592;8.868;2023-03-08T00:44:20;95489.78;;;1.01;100.00
6829;BME280;17930;48.592;8.868;2023-03-08T00:46:47;95485.00;;;1.14;100.00
6829;BME280;17930;48.592;8.868;2023-03-08T00:49:13;95489.50;;;1.29;100.00
6829;BME280;17930;48.592;8.868;2023-03-08T00:51:40;95485.63;;;1.26;100.00
6829;BME280;17930;48.592;8.868;2023-03-08T00:54:07;95490.22;;;1.24;100.00
6829;BME280;17930;48.592;8.868;2023-03-08T00:56:35;95490.09;;;1.09;100.00
6829;BME280;17930;48.592;8.868;2023-03-08T00:59:01;95491.03;;;0.99;100.00
6829;BME280;17930;48.592;8.868;2023-03-08T01:01:28;95486.69;;;0.99;100.00
6829;BME280;17930;48.592;8.868;2023-03-08T01:03:55;95489.03;;;1.05;100.00
6829;BME280;17930;48.592;8.868;2023-03-08T01:06:21;95485.28;;;1.49;100.00
6829;BME280;17930;48.592;8.868;2023-03-08T01:08:48;95481.56;;;1.30;100.00
6829;BME280;17930;48.592;8.868;2023-03-08T01:11:16;95468.81;;;1.40;100.00
6829;BME280;17930;48.592;8.868;2023-03-08T01:13:44;95476.94;;;1.27;100.00
6829;BME280;17930;48.592;8.868;2023-03-08T01:16:16;95471.97;;;1.16;100.00
6829;BME280;17930;48.592;8.868;2023-03-08T01:18:43;95470.50;;;0.99;100.00
6829;BME280;17930;48.592;8.868;2023-03-08T01:21:10;95462.19;;;0.87;100.00
6829;BME280;17930;48.592;8.868;2023-03-08T01:23:37;95453.94;;;0.85;100.00
6829;BME280;17930;48.592;8.868;2023-03-08T01:26:06;95452.44;;;0.84;100.00
6829;BME280;17930;48.592;8.868;2023-03-08T01:28:34;95449.88;;;0.89;100.00
6829;BME280;17930;48.592;8.868;2023-03-08T01:31:03;95447.78;;;0.81;100.00
6829;BME280;17930;48.592;8.868;2023-03-08T01:33:31;95450.50;;;0.69;100.00
6829;BME280;17930;48.592;8.868;2023-03-08T01:35:58;95438.09;;;0.61;100.00
6829;BME280;17930;48.592;8.868;2023-03-08T01:38:25;95435.91;;;0.75;100.00
6829;BME280;17930;48.592;8.868;2023-03-08T01:40:55;95426.09;;;0.67;100.00
6829;BME280;17930;48.592;8.868;2023-03-08T01:43:23;95422.97;;;0.86;100.00
6829;BME280;17930;48.592;8.868;2023-03-08T01:46:13;95411.69;;;0.61;100.00
6829;BME280;17930;48.592;8.868;2023-03-08T01:48:44;95409.56;;;0.53;100.00
6829;BME280;17930;48.592;8.868;2023-03-08T01:51:15;95398.25;;;0.49;100.00
6829;BME280;17930;48.592;8.868;2023-03-08T01:53:45;95403.84;;;0.46;100.00
6829;BME280;17930;48.592;8.868;2023-03-08T01:56:12;95396.25;;;0.56;100.00
6829;BME280;17930;48.592;8.868;2023-03-08T01:58:43;95400.94;;;0.64;100.00
6829;BME280;17930;48.592;8.868;2023-03-08T02:01:13;95404.59;;;0.68;100.00
6829;BME280;17930;48.592;8.868;2023-03-08T02:03:40;95394.28;;;0.63;100.00
6829;BME280;17930;48.592;8.868;2023-03-08T02:06:07;95395.34;;;0.67;100.00
6829;BME280;17930;48.592;8.868;2023-03-08T02:08:34;95388.94;;;0.69;100.00
6829;BME280;17930;48.592;8.868;2023-03-08T02:11:01;95401.53;;;0.71;100.00
6829;BME280;17930;48.592;8.868;2023-03-08T02:13:28;95396.00;;;0.84;100.00
6829;BME280;17930;48.592;8.868;2023-03-08T02:15:55;95381.91;;;0.86;100.00
6829;BME280;17930;48.592;8.868;2023-03-08T02:18:25;95386.22;;;0.81;100.00
6829;BME280;17930;48.592;8.868;2023-03-08T02:20:51;95378.84;;;0.89;100.00
6829;BME280;17930;48.592;8.868;2023-03-08T02:23:21;95393.94;;;0.86;100.00
6829;BME280;17930;48.592;8.868;2023-03-08T02:25:50;95382.78;;;1.01;100.00
6829;BME280;17930;48.592;8.868;2023-03-08T02:28:18;95375.81;;;1.33;100.00
6829;BME280;17930;48.592;8.868;2023-03-08T02:30:45;95370.53;;;1.54;100.00
6829;BME280;17930;48.592;8.868;2023-03-08T02:33:12;95365.28;;;1.35;100.00
6829;BME280;17930;48.592;8.868;2023-03-08T02:35:38;95355.78;;;1.35;100.00
6829;BME280;17930;48.592;8.868;2023-03-08T02:38:07;95353.78;;;1.42;100.00
6829;BME280;17930;48.592;8.868;2023-03-08T02:40:35;95354.47;;;1.33;100.00
6829;BME280;17930;48.592;8.868;2023-03-08T02:43:02;95338.75;;;1.19;100.00
6829;BME280;17930;48.592;8.868;2023-03-08T02:45:29;95337.25;;;1.23;100.00
6829;BME280;17930;48.592;8.868;2023-03-08T02:47:56;95322.34;;;1.25;100.00
6829;BME280;17930;48.592;8.868;2023-03-08T02:50:22;95328.75;;;1.79;100.00
6829;BME280;17930;48.592;8.868;2023-03-08T02:52:49;95329.00;;;1.77;100.00
6829;BME280;17930;48.592;8.868;2023-03-08T02:55:18;95323.81;;;1.62;100.00
6829;BME280;17930;48.592;8.868;2023-03-08T02:57:49;95311.31;;;1.86;100.00
6829;BME280;17930;48.592;8.868;2023-03-08T03:00:16;95304.09;;;1.73;100.00
6829;BME280;17930;48.592;8.868;2023-03-08T03:02:43;95297.91;;;1.69;100.00
6829;BME280;17930;48.592;8.868;2023-03-08T03:05:10;95292.22;;;1.62;100.00
6829;BME280;17930;48.592;8.868;2023-03-08T03:07:37;95292.97;;;1.62;100.00
6829;BME280;17930;48.592;8.868;2023-03-08T03:10:04;95284.25;;;1.63;100.00
6829;BME280;17930;48.592;8.868;2023-03-08T03:12:31;95280.91;;;1.58;100.00
6829;BME280;17930;48.592;8.868;2023-03-08T03:14:59;95274.78;;;1.64;100.00
6829;BME280;17930;48.592;8.868;2023-03-08T03:17:26;95264.03;;;1.77;100.00
6829;BME280;17930;48.592;8.868;2023-03-08T03:19:53;95258.88;;;1.77;100.00
6829;BME280;17930;48.592;8.868;2023-03-08T03:22:20;95268.16;;;1.83;100.00
6829;BME280;17930;48.592;8.868;2023-03-08T03:24:48;95259.44;;;1.94;100.00
6829;BME280;17930;48.592;8.868;2023-03-08T03:27:15;95252.97;;;1.86;100.00
6829;BME280;17930;48.592;8.868;2023-03-08T03:29:42;95237.06;;;1.99;100.00
6829;BME280;17930;48.592;8.868;2023-03-08T03:32:10;95226.25;;;1.77;100.00
6829;BME280;17930;48.592;8.868;2023-03-08T03:34:36;95227.50;;;1.60;100.00
6829;BME280;17930;48.592;8.868;2023-03-08T03:37:04;95220.03;;;1.49;100.00
6829;BME280;17930;48.592;8.868;2023-03-08T03:39:33;95222.78;;;1.32;100.00
6829;BME280;17930;48.592;8.868;2023-03-08T03:42:00;95219.63;;;1.10;100.00
6829;BME280;17930;48.592;8.868;2023-03-08T03:44:28;95224.03;;;1.15;100.00
6829;BME280;17930;48.592;8.868;2023-03-08T03:46:55;95225.06;;;1.19;100.00
6829;BME280;17930;48.592;8.868;2023-03-08T03:49:23;95226.25;;;1.01;100.00
6829;BME280;17930;48.592;8.868;2023-03-08T03:51:50;95223.09;;;0.85;100.00
6829;BME280;17930;48.592;8.868;2023-03-08T03:54:16;95225.59;;;0.75;100.00
6829;BME280;17930;48.592;8.868;2023-03-08T03:56:43;95227.91;;;0.71;100.00
6829;BME280;17930;48.592;8.868;2023-03-08T03:59:10;95234.22;;;0.59;100.00
6829;BME280;17930;48.592;8.868;2023-03-08T04:01:36;95233.22;;;0.65;100.00
6829;BME280;17930;48.592;8.868;2023-03-08T04:04:03;95237.28;;;0.51;100.00
6829;BME280;17930;48.592;8.868;2023-03-08T04:06:32;95227.84;;;0.61;100.00
6829;BME280;17930;48.592;8.868;2023-03-08T04:09:01;95218.03;;;0.49;100.00
6829;BME280;17930;48.592;8.868;2023-03-08T04:11:32;95211.56;;;0.41;100.00
6829;BME280;17930;48.592;8.868;2023-03-08T04:13:59;95208.03;;;0.52;100.00
6829;BME280;17930;48.592;8.868;2023-03-08T04:16:27;95199.38;;;0.63;100.00
6829;BME280;17930;48.592;8.868;2023-03-08T04:18:56;95201.59;;;0.91;100.00
6829;BME280;17930;48.592;8.868;2023-03-08T04:21:23;95203.41;;;1.00;100.00
6829;BME280;17930;48.592;8.868;2023-03-08T04:23:51;95208.84;;;1.08;100.00
6829;BME280;17930;48.592;8.868;2023-03-08T04:26:18;95212.19;;;1.09;100.00
6829;BME280;17930;48.592;8.868;2023-03-08T04:28:45;95212.47;;;1.17;100.00
6829;BME280;17930;48.592;8.868;2023-03-08T04:31:13;95216.56;;;1.18;100.00
6829;BME280;17930;48.592;8.868;2023-03-08T04:33:40;95204.56;;;1.29;100.00
6829;BME280;17930;48.592;8.868;2023-03-08T04:36:07;95189.94;;;1.29;100.00
6829;BME280;17930;48.592;8.868;2023-03-08T04:38:34;95187.63;;;1.43;100.00
6829;BME280;17930;48.592;8.868;2023-03-08T04:41:02;95177.94;;;1.64;100.00
6829;BME280;17930;48.592;8.868;2023-03-08T04:43:31;95176.41;;;1.93;100.00
6829;BME280;17930;48.592;8.868;2023-03-08T04:45:58;95176.94;;;1.75;100.00
6829;BME280;17930;48.592;8.868;2023-03-08T04:48:25;95173.06;;;1.88;100.00
6829;BME280;17930;48.592;8.868;2023-03-08T04:50:52;95167.94;;;1.88;100.00
6829;BME280;17930;48.592;8.868;2023-03-08T04:53:20;95158.69;;;1.92;100.00
6829;BME280;17930;48.592;8.868;2023-03-08T04:55:47;95147.38;;;1.88;100.00
6829;BME280;17930;48.592;8.868;2023-03-08T04:58:15;95155.09;;;1.93;100.00
6829;BME280;17930;48.592;8.868;2023-03-08T05:00:42;95164.63;;;1.82;100.00
6829;BME280;17930;48.592;8.868;2023-03-08T05:03:09;95170.50;;;1.83;100.00
6829;BME280;17930;48.592;8.868;2023-03-08T05:05:36;95172.53;;;1.81;100.00
6829;BME280;17930;48.592;8.868;2023-03-08T05:08:03;95161.78;;;1.74;100.00
6829;BME280;17930;48.592;8.868;2023-03-08T05:10:30;95157.41;;;1.84;100.00
6829;BME280;17930;48.592;8.868;2023-03-08T05:12:57;95151.75;;;1.67;100.00
6829;BME280;17930;48.592;8.868;2023-03-08T05:15:26;95146.84;;;1.81;100.00
6829;BME280;17930;48.592;8.868;2023-03-08T05:17:53;95138.66;;;1.79;100.00
6829;BME280;17930;48.592;8.868;2023-03-08T05:20:20;95131.94;;;1.68;100.00
6829;BME280;17930;48.592;8.868;2023-03-08T05:22:46;95122.47;;;1.78;100.00
6829;BME280;17930;48.592;8.868;2023-03-08T05:25:13;95114.00;;;1.73;100.00
6829;BME280;17930;48.592;8.868;2023-03-08T05:27:40;95116.03;;;1.81;100.00
6829;BME280;17930;48.592;8.868;2023-03-08T05:30:08;95110.66;;;1.92;100.00
6829;BME280;17930;48.592;8.868;2023-03-08T05:32:36;95106.22;;;2.17;100.00
6829;BME280;17930;48.592;8.868;2023-03-08T05:35:03;95093.91;;;2.19;100.00
6829;BME280;17930;48.592;8.868;2023-03-08T05:37:30;95099.03;;;2.14;100.00
6829;BME280;17930;48.592;8.868;2023-03-08T05:39:58;95107.78;;;2.08;100.00
6829;BME280;17930;48.592;8.868;2023-03-08T05:42:29;95108.84;;;2.03;100.00
6829;BME280;17930;48.592;8.868;2023-03-08T05:44:56;95108.84;;;1.93;100.00
6829;BME280;17930;48.592;8.868;2023-03-08T05:47:24;95106.78;;;1.85;100.00
6829;BME280;17930;48.592;8.868;2023-03-08T05:49:52;95103.16;;;2.15;100.00
6829;BME280;17930;48.592;8.868;2023-03-08T05:52:19;95105.22;;;2.13;100.00
6829;BME280;17930;48.592;8.868;2023-03-08T05:54:46;95101.63;;;2.09;100.00
6829;BME280;17930;48.592;8.868;2023-03-08T05:57:13;95101.09;;;2.07;100.00
6829;BME280;17930;48.592;8.868;2023-03-08T05:59:47;95102.38;;;2.10;100.00
6829;BME280;17930;48.592;8.868;2023-03-08T06:02:14;95096.47;;;2.14;100.00
6829;BME280;17930;48.592;8.868;2023-03-08T06:04:40;95104.66;;;2.31;100.00
6829;BME280;17930;48.592;8.868;2023-03-08T06:07:11;95102.09;;;2.31;100.00
6829;BME280;17930;48.592;8.868;2023-03-08T06:09:38;95096.91;;;2.46;100.00
6829;BME280;17930;48.592;8.868;2023-03-08T06:12:12;95091.25;;;2.49;100.00
6829;BME280;17930;48.592;8.868;2023-03-08T06:14:39;95078.31;;;2.69;100.00
6829;BME280;17930;48.592;8.868;2023-03-08T06:17:06;95071.03;;;2.81;100.00
6829;BME280;17930;48.592;8.868;2023-03-08T06:19:33;95062.84;;;2.74;100.00
6829;BME280;17930;48.592;8.868;2023-03-08T06:22:01;95064.66;;;2.73;100.00
6829;BME280;17930;48.592;8.868;2023-03-08T06:24:29;95070.81;;;2.77;100.00
6829;BME280;17930;48.592;8.868;2023-03-08T06:26:55;95073.34;;;2.82;100.00
6829;BME280;17930;48.592;8.868;2023-03-08T06:29:22;95064.84;;;2.87;100.00
6829;BME280;17930;48.592;8.868;2023-03-08T06:31:49;95063.22;;;3.05;100.00
6829;BME280;17930;48.592;8.868;2023-03-08T06:34:16;95052.16;;;3.00;100.00
6829;BME280;17930;48.592;8.868;2023-03-08T06:36:43;95047.91;;;3.19;100.00
6829;BME280;17930;48.592;8.868;2023-03-08T06:39:09;95058.50;;;3.17;100.00
6829;BME280;17930;48.592;8.868;2023-03-08T06:41:38;95041.63;;;3.35;100.00
6829;BME280;17930;48.592;8.868;2023-03-08T06:44:04;95033.22;;;3.24;100.00
6829;BME280;17930;48.592;8.868;2023-03-08T06:46:31;95035.50;;;3.26;100.00
6829;BME280;17930;48.592;8.868;2023-03-08T06:48:59;95035.22;;;3.32;100.00
6829;BME280;17930;48.592;8.868;2023-03-08T06:51:26;95031.78;;;3.42;100.00
6829;BME280;17930;48.592;8.868;2023-03-08T06:53:53;95019.88;;;3.51;100.00
6829;BME280;17930;48.592;8.868;2023-03-08T06:56:19;95019.81;;;3.60;100.00
6829;BME280;17930;48.592;8.868;2023-03-08T06:58:47;95016.94;;;3.62;100.00
6829;BME280;17930;48.592;8.868;2023-03-08T07:01:14;95025.81;;;3.51;100.00
6829;BME280;17930;48.592;8.868;2023-03-08T07:03:52;95023.53;;;3.73;100.00
6829;BME280;17930;48.592;8.868;2023-03-08T07:06:19;95015.22;;;3.81;100.00
6829;BME280;17930;48.592;8.868;2023-03-08T07:08:45;95006.56;;;3.72;100.00
6829;BME280;17930;48.592;8.868;2023-03-08T07:11:12;95005.56;;;3.68;100.00
6829;BME280;17930;48.592;8.868;2023-03-08T07:13:39;95000.44;;;3.91;100.00
6829;BME280;17930;48.592;8.868;2023-03-08T07:16:08;94992.47;;;3.88;100.00
6829;BME280;17930;48.592;8.868;2023-03-08T07:18:36;94999.66;;;3.91;100.00
6829;BME280;17930;48.592;8.868;2023-03-08T07:21:03;94987.59;;;3.86;100.00
6829;BME280;17930;48.592;8.868;2023-03-08T07:23:29;94976.31;;;4.06;100.00
6829;BME280;17930;48.592;8.868;2023-03-08T07:25:56;94985.63;;;4.02;100.00
6829;BME280;17930;48.592;8.868;2023-03-08T07:28:23;94968.19;;;4.17;100.00
6829;BME280;17930;48.592;8.868;2023-03-08T07:30:51;94966.84;;;4.19;100.00
6829;BME280;17930;48.592;8.868;2023-03-08T07:33:20;94968.47;;;4.15;100.00
6829;BME280;17930;48.592;8.868;2023-03-08T07:35:47;94960.78;;;4.10;100.00
6829;BME280;17930;48.592;8.868;2023-03-08T07:38:14;94954.34;;;4.08;100.00
6829;BME280;17930;48.592;8.868;2023-03-08T07:40:41;94950.53;;;4.06;100.00
6829;BME280;17930;48.592;8.868;2023-03-08T07:43:08;94957.03;;;3.98;100.00
6829;BME280;17930;48.592;8.868;2023-03-08T07:45:41;94951.94;;;3.93;100.00
6829;BME280;17930;48.592;8.868;2023-03-08T07:48:08;94936.66;;;4.02;100.00
6829;BME280;17930;48.592;8.868;2023-03-08T07:50:36;94937.09;;;4.08;100.00
6829;BME280;17930;48.592;8.868;2023-03-08T07:53:03;94939.66;;;4.08;100.00
6829;BME280;17930;48.592;8.868;2023-03-08T07:55:29;94922.53;;;4.17;100.00
6829;BME280;17930;48.592;8.868;2023-03-08T07:57:56;94906.38;;;4.30;100.00
6829;BME280;17930;48.592;8.868;2023-03-08T08:00:23;94908.47;;;4.28;100.00
6829;BME280;17930;48.592;8.868;2023-03-08T08:02:50;94896.84;;;4.31;100.00
6829;BME280;17930;48.592;8.868;2023-03-08T08:05:18;94869.34;;;4.58;100.00
6829;BME280;17930;48.592;8.868;2023-03-08T08:07:47;94864.22;;;4.71;100.00
6829;BME280;17930;48.592;8.868;2023-03-08T08:10:15;94861.72;;;4.85;100.00
6829;BME280;17930;48.592;8.868;2023-03-08T08:12:41;94860.97;;;4.98;100.00
6829;BME280;17930;48.592;8.868;2023-03-08T08:15:08;94856.44;;;5.21;100.00
6829;BME280;17930;48.592;8.868;2023-03-08T08:17:35;94844.59;;;5.34;100.00
6829;BME280;17930;48.592;8.868;2023-03-08T08:20:02;94851.41;;;5.43;100.00
6829;BME280;17930;48.592;8.868;2023-03-08T08:22:30;94853.97;;;5.43;100.00
6829;BME280;17930;48.592;8.868;2023-03-08T08:24:58;94853.78;;;5.53;100.00
6829;BME280;17930;48.592;8.868;2023-03-08T08:27:25;94837.72;;;5.56;100.00
6829;BME280;17930;48.592;8.868;2023-03-08T08:29:51;94836.00;;;5.65;100.00
6829;BME280;17930;48.592;8.868;2023-03-08T08:32:18;94834.69;;;5.81;100.00
6829;BME280;17930;48.592;8.868;2023-03-08T08:34:45;94831.41;;;6.02;100.00
6829;BME280;17930;48.592;8.868;2023-03-08T08:37:11;94821.81;;;6.16;100.00
6829;BME280;17930;48.592;8.868;2023-03-08T08:39:38;94817.97;;;6.13;100.00
6829;BME280;17930;48.592;8.868;2023-03-08T08:42:06;94819.50;;;6.14;100.00
6829;BME280;17930;48.592;8.868;2023-03-08T08:44:33;94815.97;;;6.11;100.00
6829;BME280;17930;48.592;8.868;2023-03-08T08:47:00;94811.25;;;6.12;100.00
6829;BME280;17930;48.592;8.868;2023-03-08T08:49:26;94812.03;;;6.00;100.00
6829;BME280;17930;48.592;8.868;2023-03-08T08:51:53;94816.63;;;6.03;100.00
6829;BME280;17930;48.592;8.868;2023-03-08T08:54:20;94809.41;;;5.78;100.00
6829;BME280;17930;48.592;8.868;2023-03-08T08:56:46;94812.06;;;5.73;100.00
6829;BME280;17930;48.592;8.868;2023-03-08T08:59:14;94807.28;;;5.53;100.00
6829;BME280;17930;48.592;8.868;2023-03-08T09:01:42;94814.16;;;5.44;100.00
6829;BME280;17930;48.592;8.868;2023-03-08T09:04:10;94821.63;;;5.59;100.00
6829;BME280;17930;48.592;8.868;2023-03-08T09:06:37;94815.41;;;5.60;100.00
6829;BME280;17930;48.592;8.868;2023-03-08T09:09:05;94813.41;;;5.57;100.00
6829;BME280;17930;48.592;8.868;2023-03-08T09:11:33;94808.63;;;5.64;100.00
6829;BME280;17930;48.592;8.868;2023-03-08T09:13:59;94808.63;;;5.91;100.00
6829;BME280;17930;48.592;8.868;2023-03-08T09:16:31;94801.50;;;6.10;100.00
6829;BME280;17930;48.592;8.868;2023-03-08T09:19:00;94791.97;;;6.18;100.00
6829;BME280;17930;48.592;8.868;2023-03-08T09:21:29;94789.84;;;6.56;100.00
6829;BME280;17930;48.592;8.868;2023-03-08T09:23:59;94789.59;;;6.65;100.00
6829;BME280;17930;48.592;8.868;2023-03-08T09:26:27;94778.09;;;6.80;100.00
6829;BME280;17930;48.592;8.868;2023-03-08T09:28:54;94777.47;;;7.05;100.00
6829;BME280;17930;48.592;8.868;2023-03-08T09:31:21;94766.00;;;7.27;100.00
6829;BME280;17930;48.592;8.868;2023-03-08T09:33:50;94767.13;;;7.43;100.00
6829;BME280;17930;48.592;8.868;2023-03-08T09:36:17;94768.19;;;7.42;100.00
6829;BME280;17930;48.592;8.868;2023-03-08T09:38:45;94762.41;;;7.45;100.00
6829;BME280;17930;48.592;8.868;2023-03-08T09:41:29;94765.47;;;7.47;100.00
6829;BME280;17930;48.592;8.868;2023-03-08T09:44:12;94754.78;;;7.40;100.00
6829;BME280;17930;48.592;8.868;2023-03-08T09:46:44;94762.06;;;7.38;100.00
6829;BME280;17930;48.592;8.868;2023-03-08T09:49:15;94759.16;;;7.40;100.00
6829;BME280;17930;48.592;8.868;2023-03-08T09:51:47;94755.69;;;7.44;100.00
6829;BME280;17930;48.592;8.868;2023-03-08T09:54:19;94757.69;;;7.56;100.00
6829;BME280;17930;48.592;8.868;2023-03-08T09:56:47;94761.50;;;7.58;100.00
6829;BME280;17930;48.592;8.868;2023-03-08T09:59:20;94747.94;;;7.61;100.00
6829;BME280;17930;48.592;8.868;2023-03-08T10:01:56;94742.03;;;7.69;100.00
6829;BME280;17930;48.592;8.868;2023-03-08T10:04:32;94748.75;;;7.70;100.00
6829;BME280;17930;48.592;8.868;2023-03-08T10:07:18;94743.19;;;7.46;100.00
6829;BME280;17930;48.592;8.868;2023-03-08T10:09:51;94744.81;;;7.34;100.00
6829;BME280;17930;48.592;8.868;2023-03-08T10:12:25;94739.81;;;7.46;100.00
6829;BME280;17930;48.592;8.868;2023-03-08T10:14:56;94733.47;;;7.60;100.00
6829;BME280;17930;48.592;8.868;2023-03-08T10:17:36;94738.09;;;7.80;100.00
6829;BME280;17930;48.592;8.868;2023-03-08T10:20:16;94726.00;;;7.92;100.00
6829;BME280;17930;48.592;8.868;2023-03-08T10:22:45;94739.66;;;8.15;100.00
6829;BME280;17930;48.592;8.868;2023-03-08T10:25:21;94744.09;;;8.22;100.00
6829;BME280;17930;48.592;8.868;2023-03-08T10:27:51;94725.91;;;8.48;100.00
6829;BME280;17930;48.592;8.868;2023-03-08T10:30:21;94725.09;;;8.64;100.00
6829;BME280;17930;48.592;8.868;2023-03-08T10:32:54;94714.81;;;8.93;100.00
6829;BME280;17930;48.592;8.868;2023-03-08T10:35:33;94696.59;;;9.30;100.00
6829;BME280;17930;48.592;8.868;2023-03-08T10:38:01;94702.66;;;9.42;100.00
6829;BME280;17930;48.592;8.868;2023-03-08T10:40:28;94694.13;;;9.62;100.00
6829;BME280;17930;48.592;8.868;2023-03-08T10:42:59;94706.78;;;9.72;100.00
6829;BME280;17930;48.592;8.868;2023-03-08T10:45:28;94690.41;;;9.92;100.00
6829;BME280;17930;48.592;8.868;2023-03-08T10:47:57;94688.53;;;10.01;100.00
6829;BME280;17930;48.592;8.868;2023-03-08T10:50:26;94694.88;;;10.12;100.00
6829;BME280;17930;48.592;8.868;2023-03-08T10:52:55;94689.69;;;10.12;100.00
6829;BME280;17930;48.592;8.868;2023-03-08T10:55:39;94699.31;;;10.31;100.00
6829;BME280;17930;48.592;8.868;2023-03-08T10:58:25;94685.81;;;10.50;100.00
6829;BME280;17930;48.592;8.868;2023-03-08T11:00:54;94686.25;;;10.52;100.00
6829;BME280;17930;48.592;8.868;2023-03-08T11:03:23;94695.28;;;10.66;100.00
6829;BME280;17930;48.592;8.868;2023-03-08T11:05:53;94688.81;;;10.72;100.00
6829;BME280;17930;48.592;8.868;2023-03-08T11:08:24;94683.13;;;11.26;100.00
6829;BME280;17930;48.592;8.868;2023-03-08T11:11:03;94668.66;;;11.64;100.00
6829;BME280;17930;48.592;8.868;2023-03-08T11:13:31;94694.13;;;11.55;100.00
6829;BME280;17930;48.592;8.868;2023-03-08T11:18:58;94687.59;;;11.49;100.00
6829;BME280;17930;48.592;8.868;2023-03-08T11:21:32;94681.94;;;11.71;100.00
6829;BME280;17930;48.592;8.868;2023-03-08T11:24:14;94672.63;;;11.97;100.00
6829;BME280;17930;48.592;8.868;2023-03-08T11:26:49;94667.97;;;11.79;100.00
6829;BME280;17930;48.592;8.868;2023-03-08T11:29:25;94679.94;;;11.80;100.00
6829;BME280;17930;48.592;8.868;2023-03-08T11:32:00;94682.38;;;11.61;100.00
6829;BME280;17930;48.592;8.868;2023-03-08T11:34:53;94670.38;;;11.84;100.00
6829;BME280;17930;48.592;8.868;2023-03-08T11:37:29;94677.50;;;12.11;100.00
6829;BME280;17930;48.592;8.868;2023-03-08T11:40:13;94689.19;;;12.28;100.00
6829;BME280;17930;48.592;8.868;2023-03-08T11:42:53;94678.22;;;11.84;100.00
6829;BME280;17930;48.592;8.868;2023-03-08T11:45:26;94680.81;;;11.72;100.00
6829;BME280;17930;48.592;8.868;2023-03-08T11:50:47;94682.97;;;11.94;100.00
6829;BME280;17930;48.592;8.868;2023-03-08T11:53:21;94684.94;;;11.85;100.00
6829;BME280;17930;48.592;8.868;2023-03-08T11:56:08;94679.47;;;12.02;100.00
6829;BME280;17930;48.592;8.868;2023-03-08T11:58:41;94682.47;;;12.16;100.00
6829;BME280;17930;48.592;8.868;2023-03-08T12:01:15;94684.75;;;11.78;100.00
6829;BME280;17930;48.592;8.868;2023-03-08T12:03:46;94681.59;;;11.73;100.00
6829;BME280;17930;48.592;8.868;2023-03-08T12:06:19;94681.41;;;11.66;100.00
6829;BME280;17930;48.592;8.868;2023-03-08T12:08:52;94671.69;;;11.78;100.00
6829;BME280;17930;48.592;8.868;2023-03-08T12:11:26;94667.31;;;11.94;100.00
6829;BME280;17930;48.592;8.868;2023-03-08T12:14:03;94675.56;;;12.35;100.00
6829;BME280;17930;48.592;8.868;2023-03-08T12:16:37;94682.25;;;12.48;100.00
6829;BME280;17930;48.592;8.868;2023-03-08T12:19:13;94692.22;;;12.85;100.00
6829;BME280;17930;48.592;8.868;2023-03-08T12:21:44;94677.63;;;12.29;100.00
6829;BME280;17930;48.592;8.868;2023-03-08T12:24:27;94672.06;;;12.58;100.00
6829;BME280;17930;48.592;8.868;2023-03-08T12:27:02;94679.69;;;13.06;100.00
6829;BME280;17930;48.592;8.868;2023-03-08T12:29:34;94688.56;;;13.17;100.00
6829;BME280;17930;48.592;8.868;2023-03-08T12:32:03;94685.97;;;13.66;100.00
6829;BME280;17930;48.592;8.868;2023-03-08T12:34:37;94691.91;;;13.02;100.00
6829;BME280;17930;48.592;8.868;2023-03-08T12:37:18;94685.63;;;13.68;100.00
6829;BME280;17930;48.592;8.868;2023-03-08T12:39:54;94676.91;;;14.32;100.00
6829;BME280;17930;48.592;8.868;2023-03-08T12:42:29;94681.06;;;13.80;100.00
6829;BME280;17930;48.592;8.868;2023-03-08T12:45:25;94676.34;;;13.70;100.00
6829;BME280;17930;48.592;8.868;2023-03-08T12:47:56;94682.81;;;13.27;100.00
6829;BME280;17930;48.592;8.868;2023-03-08T12:50:27;94677.00;;;12.75;100.00
6829;BME280;17930;48.592;8.868;2023-03-08T12:52:54;94682.22;;;12.75;100.00
6829;BME280;17930;48.592;8.868;2023-03-08T12:55:25;94690.72;;;12.99;100.00
6829;BME280;17930;48.592;8.868;2023-03-08T12:57:59;94695.34;;;12.90;100.00
6829;BME280;17930;48.592;8.868;2023-03-08T13:00:28;94689.06;;;13.07;100.00
6829;BME280;17930;48.592;8.868;2023-03-08T13:03:02;94685.16;;;13.31;100.00
6829;BME280;17930;48.592;8.868;2023-03-08T13:05:32;94684.00;;;13.14;100.00
6829;BME280;17930;48.592;8.868;2023-03-08T13:08:03;94695.38;;;13.21;100.00
6829;BME280;17930;48.592;8.868;2023-03-08T13:10:33;94679.59;;;13.18;100.00
6829;BME280;17930;48.592;8.868;2023-03-08T13:13:23;94681.31;;;12.83;100.00
6829;BME280;17930;48.592;8.868;2023-03-08T13:16:04;94697.91;;;12.75;100.00
6829;BME280;17930;48.592;8.868;2023-03-08T13:18:31;94701.94;;;12.57;100.00
6829;BME280;17930;48.592;8.868;2023-03-08T13:21:06;94688.72;;;12.66;100.00
6829;BME280;17930;48.592;8.868;2023-03-08T13:23:42;94697.16;;;13.02;100.00
6829;BME280;17930;48.592;8.868;2023-03-08T13:26:20;94700.63;;;13.06;100.00